sensor_id;sensor_type;location;lat;lon;timestamp;pressure;altitude;pressure_sealevel;temperature;humidity
49999;BME280;68071;45.062;7.356;2024-03-17T00:01:48;95543.91;;;10.88;59.89
49999;BME280;68071;45.062;7.356;2024-03-17T00:04:52;95545.50;;;10.85;58.15
49999;BME280;68071;45.062;7.356;2024-03-17T00:07:57;95546.50;;;11.28;54.85
49999;BME280;68071;45.062;7.356;2024-03-17T00:11:02;95544.00;;;10.08;68.37
49999;BME280;68071;45.062;7.356;2024-03-17T00:14:06;95544.69;;;9.22;88.81
49999;BME280;68071;45.062;7.356;2024-03-17T00:17:10;95547.09;;;9.38;88.90
49999;BME280;68071;45.062;7.356;2024-03-17T00:20:14;95547.16;;;10.14;70.84
49999;BME280;68071;45.062;7.356;2024-03-17T00:23:23;95538.47;;;9.72;86.96
49999;BME280;68071;45.062;7.356;2024-03-17T00:26:30;95545.91;;;9.28;100.00
49999;BME280;68071;45.062;7.356;2024-03-17T00:29:35;95542.56;;;8.79;100.00
49999;BME280;68071;45.062;7.356;2024-03-17T00:32:39;95534.75;;;8.99;100.00
49999;BME280;68071;45.062;7.356;2024-03-17T00:35:44;95554.44;;;8.98;100.00
49999;BME280;68071;45.062;7.356;2024-03-17T00:38:47;95545.91;;;9.46;91.80
49999;BME280;68071;45.062;7.356;2024-03-17T00:41:52;95537.28;;;9.48;90.11
49999;BME280;68071;45.062;7.356;2024-03-17T00:44:56;95538.34;;;9.11;99.39
49999;BME280;68071;45.062;7.356;2024-03-17T00:48:00;95538.72;;;9.02;98.83
49999;BME280;68071;45.062;7.356;2024-03-17T00:51:05;95537.59;;;9.14;89.96
49999;BME280;68071;45.062;7.356;2024-03-17T00:54:09;95528.97;;;9.41;81.83
49999;BME280;68071;45.062;7.356;2024-03-17T00:57:15;95536.84;;;9.35;82.94
49999;BME280;68071;45.062;7.356;2024-03-17T01:00:22;95535.72;;;9.61;74.92
49999;BME280;68071;45.062;7.356;2024-03-17T01:03:28;95545.97;;;9.79;77.65
49999;BME280;68071;45.062;7.356;2024-03-17T01:06:32;95534.13;;;9.46;100.00
49999;BME280;68071;45.062;7.356;2024-03-17T01:09:38;95520.66;;;9.26;100.00
49999;BME280;68071;45.062;7.356;2024-03-17T01:12:43;95531.59;;;8.90;100.00
49999;BME280;68071;45.062;7.356;2024-03-17T01:15:51;95529.44;;;8.54;100.00
49999;BME280;68071;45.062;7.356;2024-03-17T01:18:56;95521.34;;;8.90;100.00
49999;BME280;68071;45.062;7.356;2024-03-17T01:22:00;95515.44;;;8.96;100.00
49999;BME280;68071;45.062;7.356;2024-03-17T01:25:06;95516.25;;;9.03;100.00
49999;BME280;68071;45.062;7.356;2024-03-17T01:28:13;95513.53;;;9.07;100.00
49999;BME280;68071;45.062;7.356;2024-03-17T01:31:18;95510.81;;;9.29;100.00
49999;BME280;68071;45.062;7.356;2024-03-17T01:34:22;95506.47;;;9.24;100.00
49999;BME280;68071;45.062;7.356;2024-03-17T01:37:27;95505.50;;;8.69;100.00
49999;BME280;68071;45.062;7.356;2024-03-17T01:40:36;95502.84;;;8.91;100.00
49999;BME280;68071;45.062;7.356;2024-03-17T01:43:40;95503.97;;;8.79;100.00
49999;BME280;68071;45.062;7.356;2024-03-17T01:46:44;95495.72;;;8.83;100.00
49999;BME280;68071;45.062;7.356;2024-03-17T01:49:49;95494.50;;;8.73;100.00
49999;BME280;68071;45.062;7.356;2024-03-17T01:52:56;95490.78;;;8.43;100.00
49999;BME280;68071;45.062;7.356;2024-03-17T01:56:03;95491.84;;;8.21;100.00
49999;BME280;68071;45.062;7.356;2024-03-17T01:59:08;95486.72;;;8.19;100.00
49999;BME280;68071;45.062;7.356;2024-03-17T02:02:13;95497.44;;;8.31;100.00
49999;BME280;68071;45.062;7.356;2024-03-17T02:05:17;95496.75;;;8.49;100.00
49999;BME280;68071;45.062;7.356;2024-03-17T02:08:21;95493.75;;;8.87;100.00
49999;BME280;68071;45.062;7.356;2024-03-17T02:11:30;95499.56;;;8.60;100.00
49999;BME280;68071;45.062;7.356;2024-03-17T02:14:35;95502.94;;;8.31;100.00
49999;BME280;68071;45.062;7.356;2024-03-17T02:17:39;95502.06;;;8.20;100.00
49999;BME280;68071;45.062;7.356;2024-03-17T02:20:44;95511.72;;;8.52;100.00
49999;BME280;68071;45.062;7.356;2024-03-17T02:24:03;95509.38;;;8.54;100.00
49999;BME280;68071;45.062;7.356;2024-03-17T02:27:07;95514.66;;;8.17;100.00
49999;BME280;68071;45.062;7.356;2024-03-17T02:30:11;95502.97;;;8.42;100.00
49999;BME280;68071;45.062;7.356;2024-03-17T02:33:16;95518.66;;;8.35;100.00
49999;BME280;68071;45.062;7.356;2024-03-17T02:36:20;95520.66;;;8.38;100.00
49999;BME280;68071;45.062;7.356;2024-03-17T02:39:24;95522.84;;;8.10;100.00
49999;BME280;68071;45.062;7.356;2024-03-17T02:42:42;95526.69;;;7.12;100.00
49999;BME280;68071;45.062;7.356;2024-03-17T02:45:49;95519.97;;;7.06;100.00
49999;BME280;68071;45.062;7.356;2024-03-17T02:48:53;95520.56;;;7.26;100.00
49999;BME280;68071;45.062;7.356;2024-03-17T02:51:57;95507.56;;;7.23;100.00
49999;BME280;68071;45.062;7.356;2024-03-17T02:55:03;95509.88;;;7.59;100.00
49999;BME280;68071;45.062;7.356;2024-03-17T02:58:07;95514.88;;;7.49;100.00
49999;BME280;68071;45.062;7.356;2024-03-17T03:01:11;95525.53;;;6.79;100.00
49999;BME280;68071;45.062;7.356;2024-03-17T03:04:16;95521.91;;;7.05;100.00
49999;BME280;68071;45.062;7.356;2024-03-17T03:07:20;95522.09;;;6.55;100.00
49999;BME280;68071;45.062;7.356;2024-03-17T03:10:24;95511.31;;;6.70;100.00
49999;BME280;68071;45.062;7.356;2024-03-17T03:13:28;95517.75;;;6.54;100.00
49999;BME280;68071;45.062;7.356;2024-03-17T03:16:38;95500.66;;;6.07;100.00
49999;BME280;68071;45.062;7.356;2024-03-17T03:19:56;95513.91;;;6.01;100.00
49999;BME280;68071;45.062;7.356;2024-03-17T03:23:03;95510.47;;;6.08;100.00
49999;BME280;68071;45.062;7.356;2024-03-17T03:26:14;95517.91;;;6.65;100.00
49999;BME280;68071;45.062;7.356;2024-03-17T03:29:18;95524.09;;;6.58;100.00
49999;BME280;68071;45.062;7.356;2024-03-17T03:32:23;95529.09;;;6.49;100.00
49999;BME280;68071;45.062;7.356;2024-03-17T03:35:28;95526.63;;;7.05;100.00
49999;BME280;68071;45.062;7.356;2024-03-17T03:38:32;95540.66;;;6.96;100.00
49999;BME280;68071;45.062;7.356;2024-03-17T03:41:37;95544.72;;;6.75;100.00
49999;BME280;68071;45.062;7.356;2024-03-17T03:44:42;95531.63;;;6.65;100.00
49999;BME280;68071;45.062;7.356;2024-03-17T03:47:47;95529.50;;;7.16;100.00
49999;BME280;68071;45.062;7.356;2024-03-17T03:50:51;95536.53;;;7.99;100.00
49999;BME280;68071;45.062;7.356;2024-03-17T03:53:55;95540.75;;;9.23;100.00
49999;BME280;68071;45.062;7.356;2024-03-17T03:56:59;95537.25;;;9.41;100.00
49999;BME280;68071;45.062;7.356;2024-03-17T04:00:03;95524.66;;;9.50;100.00
49999;BME280;68071;45.062;7.356;2024-03-17T04:03:17;95518.25;;;8.32;100.00
49999;BME280;68071;45.062;7.356;2024-03-17T04:06:21;95525.81;;;8.46;100.00
49999;BME280;68071;45.062;7.356;2024-03-17T04:09:25;95524.78;;;8.66;100.00
49999;BME280;68071;45.062;7.356;2024-03-17T04:12:29;95529.03;;;8.52;100.00
49999;BME280;68071;45.062;7.356;2024-03-17T04:15:37;95545.22;;;8.61;100.00
49999;BME280;68071;45.062;7.356;2024-03-17T04:18:42;95537.16;;;8.34;100.00
49999;BME280;68071;45.062;7.356;2024-03-17T04:21:46;95538.00;;;8.42;100.00
49999;BME280;68071;45.062;7.356;2024-03-17T04:24:51;95540.00;;;7.44;100.00
49999;BME280;68071;45.062;7.356;2024-03-17T04:27:59;95532.25;;;7.57;100.00
49999;BME280;68071;45.062;7.356;2024-03-17T04:31:07;95530.09;;;7.81;100.00
49999;BME280;68071;45.062;7.356;2024-03-17T04:34:11;95535.91;;;7.68;100.00
49999;BME280;68071;45.062;7.356;2024-03-17T04:37:16;95528.09;;;7.78;100.00
49999;BME280;68071;45.062;7.356;2024-03-17T04:40:20;95533.25;;;7.79;100.00
49999;BME280;68071;45.062;7.356;2024-03-17T04:43:26;95542.56;;;7.67;100.00
49999;BME280;68071;45.062;7.356;2024-03-17T04:46:30;95546.50;;;7.70;100.00
49999;BME280;68071;45.062;7.356;2024-03-17T04:49:41;95539.94;;;7.85;100.00
49999;BME280;68071;45.062;7.356;2024-03-17T04:52:46;95544.34;;;7.90;100.00
49999;BME280;68071;45.062;7.356;2024-03-17T04:56:04;95538.44;;;7.92;100.00
49999;BME280;68071;45.062;7.356;2024-03-17T04:59:09;95545.56;;;7.51;100.00
49999;BME280;68071;45.062;7.356;2024-03-17T05:02:13;95554.66;;;7.59;100.00
49999;BME280;68071;45.062;7.356;2024-03-17T05:05:18;95546.66;;;7.84;100.00
49999;BME280;68071;45.062;7.356;2024-03-17T05:08:22;95540.56;;;7.64;100.00
49999;BME280;68071;45.062;7.356;2024-03-17T05:11:25;95548.50;;;7.73;100.00
49999;BME280;68071;45.062;7.356;2024-03-17T05:14:30;95550.91;;;7.78;100.00
49999;BME280;68071;45.062;7.356;2024-03-17T05:17:35;95555.72;;;7.47;100.00
49999;BME280;68071;45.062;7.356;2024-03-17T05:20:40;95553.97;;;7.28;100.00
49999;BME280;68071;45.062;7.356;2024-03-17T05:23:44;95551.94;;;7.21;100.00
49999;BME280;68071;45.062;7.356;2024-03-17T05:26:48;95553.69;;;6.69;100.00
49999;BME280;68071;45.062;7.356;2024-03-17T05:29:51;95556.19;;;6.81;100.00
49999;BME280;68071;45.062;7.356;2024-03-17T05:32:56;95556.91;;;6.78;100.00
49999;BME280;68071;45.062;7.356;2024-03-17T05:36:01;95562.78;;;6.76;100.00
49999;BME280;68071;45.062;7.356;2024-03-17T05:39:06;95563.75;;;6.91;100.00
49999;BME280;68071;45.062;7.356;2024-03-17T05:42:10;95558.22;;;6.88;100.00
49999;BME280;68071;45.062;7.356;2024-03-17T05:45:14;95563.47;;;7.00;100.00
49999;BME280;68071;45.062;7.356;2024-03-17T05:48:19;95558.19;;;7.18;100.00
49999;BME280;68071;45.062;7.356;2024-03-17T05:51:24;95558.25;;;7.63;100.00
49999;BME280;68071;45.062;7.356;2024-03-17T05:54:30;95556.22;;;7.56;100.00
49999;BME280;68071;45.062;7.356;2024-03-17T05:57:34;95567.34;;;7.71;100.00
49999;BME280;68071;45.062;7.356;2024-03-17T06:00:39;95569.97;;;7.56;100.00
49999;BME280;68071;45.062;7.356;2024-03-17T06:03:43;95579.78;;;7.54;100.00
49999;BME280;68071;45.062;7.356;2024-03-17T06:06:47;95580.22;;;7.60;100.00
49999;BME280;68071;45.062;7.356;2024-03-17T06:09:53;95587.94;;;7.47;100.00
49999;BME280;68071;45.062;7.356;2024-03-17T06:12:58;95586.34;;;7.46;100.00
49999;BME280;68071;45.062;7.356;2024-03-17T06:16:03;95579.00;;;7.57;100.00
49999;BME280;68071;45.062;7.356;2024-03-17T06:19:09;95585.00;;;7.66;100.00
49999;BME280;68071;45.062;7.356;2024-03-17T06:22:14;95590.41;;;7.59;100.00
49999;BME280;68071;45.062;7.356;2024-03-17T06:25:18;95597.81;;;7.93;100.00
49999;BME280;68071;45.062;7.356;2024-03-17T06:28:23;95598.31;;;8.06;100.00
49999;BME280;68071;45.062;7.356;2024-03-17T06:31:27;95598.75;;;8.08;100.00
49999;BME280;68071;45.062;7.356;2024-03-17T06:34:31;95610.16;;;8.58;100.00
49999;BME280;68071;45.062;7.356;2024-03-17T06:37:35;95605.88;;;8.65;100.00
49999;BME280;68071;45.062;7.356;2024-03-17T06:40:39;95610.97;;;8.66;100.00
49999;BME280;68071;45.062;7.356;2024-03-17T06:43:44;95613.25;;;8.50;100.00
49999;BME280;68071;45.062;7.356;2024-03-17T06:46:48;95613.78;;;8.21;100.00
49999;BME280;68071;45.062;7.356;2024-03-17T06:49:52;95620.91;;;8.26;100.00
49999;BME280;68071;45.062;7.356;2024-03-17T06:52:56;95618.34;;;8.51;100.00
49999;BME280;68071;45.062;7.356;2024-03-17T06:56:00;95615.75;;;8.73;100.00
49999;BME280;68071;45.062;7.356;2024-03-17T06:59:04;95621.03;;;9.00;100.00
49999;BME280;68071;45.062;7.356;2024-03-17T07:02:10;95618.34;;;9.14;100.00
49999;BME280;68071;45.062;7.356;2024-03-17T07:05:14;95618.72;;;9.13;100.00
49999;BME280;68071;45.062;7.356;2024-03-17T07:08:19;95628.91;;;9.01;100.00
49999;BME280;68071;45.062;7.356;2024-03-17T07:11:24;95622.81;;;8.67;100.00
49999;BME280;68071;45.062;7.356;2024-03-17T07:14:28;95633.66;;;9.04;100.00
49999;BME280;68071;45.062;7.356;2024-03-17T07:17:35;95632.59;;;9.31;100.00
49999;BME280;68071;45.062;7.356;2024-03-17T07:20:40;95627.81;;;9.17;100.00
49999;BME280;68071;45.062;7.356;2024-03-17T07:23:45;95641.66;;;9.31;100.00
49999;BME280;68071;45.062;7.356;2024-03-17T07:26:49;95637.41;;;9.56;100.00
49999;BME280;68071;45.062;7.356;2024-03-17T07:29:54;95627.19;;;9.63;100.00
49999;BME280;68071;45.062;7.356;2024-03-17T07:32:58;95632.31;;;9.76;100.00
49999;BME280;68071;45.062;7.356;2024-03-17T07:36:02;95624.41;;;9.60;100.00
49999;BME280;68071;45.062;7.356;2024-03-17T07:39:08;95632.31;;;9.76;100.00
49999;BME280;68071;45.062;7.356;2024-03-17T07:42:12;95637.50;;;9.88;100.00
49999;BME280;68071;45.062;7.356;2024-03-17T07:45:17;95647.38;;;10.00;100.00
49999;BME280;68071;45.062;7.356;2024-03-17T07:48:22;95649.38;;;10.21;100.00
49999;BME280;68071;45.062;7.356;2024-03-17T07:51:28;95658.09;;;10.70;100.00
49999;BME280;68071;45.062;7.356;2024-03-17T07:54:32;95655.28;;;10.96;100.00
49999;BME280;68071;45.062;7.356;2024-03-17T07:57:39;95658.38;;;11.23;100.00
49999;BME280;68071;45.062;7.356;2024-03-17T08:00:43;95648.50;;;11.22;100.00
49999;BME280;68071;45.062;7.356;2024-03-17T08:03:47;95649.72;;;11.10;90.27
49999;BME280;68071;45.062;7.356;2024-03-17T08:06:58;95652.03;;;11.30;85.15
49999;BME280;68071;45.062;7.356;2024-03-17T08:10:02;95658.72;;;11.47;79.56
49999;BME280;68071;45.062;7.356;2024-03-17T08:13:07;95644.50;;;11.41;76.26
49999;BME280;68071;45.062;7.356;2024-03-17T08:16:12;95651.88;;;11.66;79.61
49999;BME280;68071;45.062;7.356;2024-03-17T08:19:17;95646.81;;;11.54;79.27
49999;BME280;68071;45.062;7.356;2024-03-17T08:22:21;95648.63;;;11.89;67.31
49999;BME280;68071;45.062;7.356;2024-03-17T08:25:25;95663.03;;;12.33;64.11
49999;BME280;68071;45.062;7.356;2024-03-17T08:28:29;95663.28;;;12.50;60.61
49999;BME280;68071;45.062;7.356;2024-03-17T08:31:36;95664.97;;;11.65;61.63
49999;BME280;68071;45.062;7.356;2024-03-17T08:34:46;95675.16;;;11.83;69.32
49999;BME280;68071;45.062;7.356;2024-03-17T08:37:51;95666.09;;;12.43;68.90
49999;BME280;68071;45.062;7.356;2024-03-17T08:41:05;95662.78;;;12.62;60.14
49999;BME280;68071;45.062;7.356;2024-03-17T08:44:10;95654.09;;;12.60;61.89
49999;BME280;68071;45.062;7.356;2024-03-17T08:47:14;95654.53;;;12.55;59.39
49999;BME280;68071;45.062;7.356;2024-03-17T08:50:18;95655.66;;;12.65;59.26
49999;BME280;68071;45.062;7.356;2024-03-17T08:53:23;95666.00;;;13.02;58.71
49999;BME280;68071;45.062;7.356;2024-03-17T08:56:27;95659.28;;;13.00;59.71
49999;BME280;68071;45.062;7.356;2024-03-17T08:59:31;95668.06;;;12.95;57.56
49999;BME280;68071;45.062;7.356;2024-03-17T09:02:35;95669.81;;;13.20;57.47
49999;BME280;68071;45.062;7.356;2024-03-17T09:05:41;95668.97;;;13.23;54.18
49999;BME280;68071;45.062;7.356;2024-03-17T09:08:45;95665.19;;;13.44;56.77
49999;BME280;68071;45.062;7.356;2024-03-17T09:11:49;95659.91;;;13.53;55.74
49999;BME280;68071;45.062;7.356;2024-03-17T09:14:55;95655.28;;;13.43;56.16
49999;BME280;68071;45.062;7.356;2024-03-17T09:17:59;95654.84;;;13.10;58.17
49999;BME280;68071;45.062;7.356;2024-03-17T09:21:07;95640.97;;;13.48;52.38
49999;BME280;68071;45.062;7.356;2024-03-17T09:24:11;95653.41;;;12.94;60.91
49999;BME280;68071;45.062;7.356;2024-03-17T09:27:15;95646.38;;;12.82;76.05
49999;BME280;68071;45.062;7.356;2024-03-17T09:30:23;95638.84;;;12.83;76.64
49999;BME280;68071;45.062;7.356;2024-03-17T09:33:29;95637.38;;;13.48;66.67
49999;BME280;68071;45.062;7.356;2024-03-17T09:36:33;95632.91;;;13.57;68.92
49999;BME280;68071;45.062;7.356;2024-03-17T09:39:38;95626.16;;;13.89;58.58
49999;BME280;68071;45.062;7.356;2024-03-17T09:42:42;95625.63;;;13.67;62.06
49999;BME280;68071;45.062;7.356;2024-03-17T09:45:50;95628.59;;;13.53;65.06
49999;BME280;68071;45.062;7.356;2024-03-17T09:48:58;95630.41;;;13.67;60.67
49999;BME280;68071;45.062;7.356;2024-03-17T09:52:03;95637.81;;;14.32;58.58
49999;BME280;68071;45.062;7.356;2024-03-17T09:55:15;95639.19;;;13.92;66.40
49999;BME280;68071;45.062;7.356;2024-03-17T09:58:20;95639.09;;;14.00;64.91
49999;BME280;68071;45.062;7.356;2024-03-17T10:01:24;95640.31;;;13.99;66.24
49999;BME280;68071;45.062;7.356;2024-03-17T10:04:32;95636.66;;;13.74;64.24
49999;BME280;68071;45.062;7.356;2024-03-17T10:07:38;95647.25;;;13.83;59.16
49999;BME280;68071;45.062;7.356;2024-03-17T10:10:43;95643.63;;;13.55;61.04
49999;BME280;68071;45.062;7.356;2024-03-17T10:13:59;95633.84;;;13.47;63.21
49999;BME280;68071;45.062;7.356;2024-03-17T10:17:04;95641.34;;;13.46;64.48
49999;BME280;68071;45.062;7.356;2024-03-17T10:23:22;95641.56;;;13.94;56.33
49999;BME280;68071;45.062;7.356;2024-03-17T10:26:27;95638.69;;;13.70;53.00
49999;BME280;68071;45.062;7.356;2024-03-17T10:29:35;95632.06;;;13.91;54.03
49999;BME280;68071;45.062;7.356;2024-03-17T10:32:39;95624.88;;;13.63;62.08
49999;BME280;68071;45.062;7.356;2024-03-17T10:35:44;95635.19;;;13.94;53.99
49999;BME280;68071;45.062;7.356;2024-03-17T10:38:52;95629.56;;;13.35;62.73
49999;BME280;68071;45.062;7.356;2024-03-17T10:42:01;95632.03;;;13.29;58.84
49999;BME280;68071;45.062;7.356;2024-03-17T10:45:08;95623.28;;;13.66;60.74
49999;BME280;68071;45.062;7.356;2024-03-17T10:48:17;95609.34;;;14.24;57.62
49999;BME280;68071;45.062;7.356;2024-03-17T10:51:23;95609.81;;;14.70;54.18
49999;BME280;68071;45.062;7.356;2024-03-17T10:54:28;95615.25;;;15.01;51.85
49999;BME280;68071;45.062;7.356;2024-03-17T11:00:42;95616.13;;;14.23;55.84
49999;BME280;68071;45.062;7.356;2024-03-17T11:03:47;95611.31;;;14.00;57.41
49999;BME280;68071;45.062;7.356;2024-03-17T11:06:54;95618.69;;;14.61;54.33
49999;BME280;68071;45.062;7.356;2024-03-17T11:10:02;95616.75;;;14.58;53.03
49999;BME280;68071;45.062;7.356;2024-03-17T11:13:22;95617.75;;;14.72;57.81
49999;BME280;68071;45.062;7.356;2024-03-17T11:16:27;95616.41;;;14.80;54.26
49999;BME280;68071;45.062;7.356;2024-03-17T11:19:31;95611.91;;;14.62;58.22
49999;BME280;68071;45.062;7.356;2024-03-17T11:22:42;95611.50;;;14.64;57.21
49999;BME280;68071;45.062;7.356;2024-03-17T11:25:52;95599.41;;;14.27;61.09
49999;BME280;68071;45.062;7.356;2024-03-17T11:28:58;95596.91;;;14.32;63.10
49999;BME280;68071;45.062;7.356;2024-03-17T11:32:24;95582.50;;;14.14;60.11
49999;BME280;68071;45.062;7.356;2024-03-17T11:35:29;95579.56;;;14.48;58.52
49999;BME280;68071;45.062;7.356;2024-03-17T11:38:57;95584.63;;;14.30;62.65
49999;BME280;68071;45.062;7.356;2024-03-17T11:42:05;95589.09;;;14.47;63.30
49999;BME280;68071;45.062;7.356;2024-03-17T11:45:15;95586.16;;;14.58;58.23
49999;BME280;68071;45.062;7.356;2024-03-17T11:48:21;95580.59;;;14.58;62.96
49999;BME280;68071;45.062;7.356;2024-03-17T11:51:26;95568.09;;;14.46;64.45
49999;BME280;68071;45.062;7.356;2024-03-17T11:54:32;95568.44;;;15.36;61.54
49999;BME280;68071;45.062;7.356;2024-03-17T11:57:37;95559.09;;;15.26;62.00
49999;BME280;68071;45.062;7.356;2024-03-17T12:00:42;95558.72;;;14.84;61.81
49999;BME280;68071;45.062;7.356;2024-03-17T12:03:46;95550.69;;;14.42;63.28
49999;BME280;68071;45.062;7.356;2024-03-17T12:06:51;95556.00;;;14.33;64.32
49999;BME280;68071;45.062;7.356;2024-03-17T12:09:56;95558.09;;;14.25;62.18
49999;BME280;68071;45.062;7.356;2024-03-17T12:13:01;95556.88;;;14.02;63.33
49999;BME280;68071;45.062;7.356;2024-03-17T12:16:13;95558.22;;;13.90;61.25
49999;BME280;68071;45.062;7.356;2024-03-17T12:19:18;95535.25;;;13.63;60.05
49999;BME280;68071;45.062;7.356;2024-03-17T12:22:23;95549.16;;;14.14;60.84
49999;BME280;68071;45.062;7.356;2024-03-17T12:25:29;95541.06;;;13.99;59.37
49999;BME280;68071;45.062;7.356;2024-03-17T12:28:34;95549.44;;;13.96;60.62
49999;BME280;68071;45.062;7.356;2024-03-17T12:31:40;95543.25;;;13.84;61.74
49999;BME280;68071;45.062;7.356;2024-03-17T12:34:50;95535.81;;;14.05;61.42
49999;BME280;68071;45.062;7.356;2024-03-17T12:37:55;95531.47;;;14.28;59.22
49999;BME280;68071;45.062;7.356;2024-03-17T12:41:01;95531.16;;;14.66;60.57
49999;BME280;68071;45.062;7.356;2024-03-17T12:44:04;95531.53;;;14.92;55.39
49999;BME280;68071;45.062;7.356;2024-03-17T12:47:18;95526.16;;;14.57;58.82
49999;BME280;68071;45.062;7.356;2024-03-17T12:50:22;95516.97;;;14.84;63.71
49999;BME280;68071;45.062;7.356;2024-03-17T12:53:27;95512.31;;;14.77;62.35
49999;BME280;68071;45.062;7.356;2024-03-17T12:56:32;95515.88;;;14.78;69.92
49999;BME280;68071;45.062;7.356;2024-03-17T12:59:54;95513.28;;;14.67;62.55
49999;BME280;68071;45.062;7.356;2024-03-17T13:03:30;95506.03;;;14.73;69.44
49999;BME280;68071;45.062;7.356;2024-03-17T13:06:35;95503.19;;;14.77;71.93
49999;BME280;68071;45.062;7.356;2024-03-17T13:09:39;95502.97;;;15.08;70.88
49999;BME280;68071;45.062;7.356;2024-03-17T13:12:47;95491.91;;;15.24;68.69
49999;BME280;68071;45.062;7.356;2024-03-17T13:15:52;95506.59;;;15.62;66.94
49999;BME280;68071;45.062;7.356;2024-03-17T13:18:56;95502.03;;;15.15;68.26
49999;BME280;68071;45.062;7.356;2024-03-17T13:22:00;95498.84;;;14.96;67.15
49999;BME280;68071;45.062;7.356;2024-03-17T13:25:05;95495.94;;;15.03;68.57
49999;BME280;68071;45.062;7.356;2024-03-17T13:28:09;95500.63;;;15.06;70.97
49999;BME280;68071;45.062;7.356;2024-03-17T13:31:14;95496.53;;;15.31;74.61
49999;BME280;68071;45.062;7.356;2024-03-17T13:34:19;95496.34;;;15.22;67.57
49999;BME280;68071;45.062;7.356;2024-03-17T13:37:24;95488.06;;;14.98;75.17
49999;BME280;68071;45.062;7.356;2024-03-17T13:40:28;95483.88;;;15.63;67.61
49999;BME280;68071;45.062;7.356;2024-03-17T13:43:33;95473.81;;;15.33;72.92
49999;BME280;68071;45.062;7.356;2024-03-17T13:46:38;95466.38;;;15.46;75.77
49999;BME280;68071;45.062;7.356;2024-03-17T13:49:52;95478.38;;;15.23;76.70
49999;BME280;68071;45.062;7.356;2024-03-17T13:53:02;95483.50;;;15.08;69.55
49999;BME280;68071;45.062;7.356;2024-03-17T13:56:07;95466.72;;;15.11;65.96
49999;BME280;68071;45.062;7.356;2024-03-17T14:03:17;95455.97;;;15.30;68.93
49999;BME280;68071;45.062;7.356;2024-03-17T14:10:31;95448.94;;;15.95;58.99
49999;BME280;68071;45.062;7.356;2024-03-17T14:13:43;95453.16;;;15.67;63.74
49999;BME280;68071;45.062;7.356;2024-03-17T14:16:56;95453.16;;;15.50;61.95
49999;BME280;68071;45.062;7.356;2024-03-17T14:20:00;95449.69;;;15.26;66.58
49999;BME280;68071;45.062;7.356;2024-03-17T14:23:05;95445.28;;;15.28;66.61
49999;BME280;68071;45.062;7.356;2024-03-17T14:26:09;95445.16;;;15.69;62.47
49999;BME280;68071;45.062;7.356;2024-03-17T14:29:19;95449.00;;;16.54;59.86
49999;BME280;68071;45.062;7.356;2024-03-17T14:32:30;95437.91;;;16.80;58.27
49999;BME280;68071;45.062;7.356;2024-03-17T14:35:46;95433.66;;;16.00;58.67
49999;BME280;68071;45.062;7.356;2024-03-17T14:42:51;95428.97;;;17.15;54.10
49999;BME280;68071;45.062;7.356;2024-03-17T14:45:55;95417.91;;;16.69;55.19
49999;BME280;68071;45.062;7.356;2024-03-17T14:48:59;95411.63;;;15.72;58.86
49999;BME280;68071;45.062;7.356;2024-03-17T14:52:05;95429.22;;;15.16;66.44
49999;BME280;68071;45.062;7.356;2024-03-17T14:55:25;95422.69;;;15.23;64.83
49999;BME280;68071;45.062;7.356;2024-03-17T14:59:13;95422.97;;;15.12;69.33
49999;BME280;68071;45.062;7.356;2024-03-17T15:02:36;95440.06;;;15.31;67.79
49999;BME280;68071;45.062;7.356;2024-03-17T15:05:49;95436.88;;;15.98;64.90
49999;BME280;68071;45.062;7.356;2024-03-17T15:09:03;95426.06;;;16.46;58.25
49999;BME280;68071;45.062;7.356;2024-03-17T15:12:14;95398.91;;;16.63;59.14
49999;BME280;68071;45.062;7.356;2024-03-17T15:19:33;95396.56;;;16.03;59.33
49999;BME280;68071;45.062;7.356;2024-03-17T15:23:00;95409.63;;;15.90;62.47
49999;BME280;68071;45.062;7.356;2024-03-17T15:26:20;95392.94;;;16.48;56.48
49999;BME280;68071;45.062;7.356;2024-03-17T15:30:06;95394.56;;;17.05;54.64
49999;BME280;68071;45.062;7.356;2024-03-17T15:33:30;95392.56;;;16.63;60.63
49999;BME280;68071;45.062;7.356;2024-03-17T15:36:51;95409.88;;;17.39;53.31
49999;BME280;68071;45.062;7.356;2024-03-17T15:40:15;95411.47;;;17.53;53.21
49999;BME280;68071;45.062;7.356;2024-03-17T15:47:03;95409.56;;;17.11;52.36
49999;BME280;68071;45.062;7.356;2024-03-17T15:50:11;95396.38;;;16.40;55.21
49999;BME280;68071;45.062;7.356;2024-03-17T15:53:28;95409.03;;;16.28;56.07
49999;BME280;68071;45.062;7.356;2024-03-17T15:56:50;95400.56;;;16.90;55.37
49999;BME280;68071;45.062;7.356;2024-03-17T16:00:32;95404.75;;;16.82;52.94
49999;BME280;68071;45.062;7.356;2024-03-17T16:04:23;95389.66;;;16.67;52.26
49999;BME280;68071;45.062;7.356;2024-03-17T16:07:51;95372.47;;;16.39;54.17
49999;BME280;68071;45.062;7.356;2024-03-17T16:11:10;95379.09;;;16.45;55.53
49999;BME280;68071;45.062;7.356;2024-03-17T16:14:18;95373.38;;;16.78;54.23
49999;BME280;68071;45.062;7.356;2024-03-17T16:17:23;95366.97;;;17.07;53.02
49999;BME280;68071;45.062;7.356;2024-03-17T16:27:24;95389.91;;;16.85;57.15
49999;BME280;68071;45.062;7.356;2024-03-17T16:30:38;95387.13;;;16.43;58.48
49999;BME280;68071;45.062;7.356;2024-03-17T16:33:55;95398.88;;;16.93;55.97
49999;BME280;68071;45.062;7.356;2024-03-17T16:37:12;95388.28;;;17.01;56.37
49999;BME280;68071;45.062;7.356;2024-03-17T16:41:02;95389.88;;;17.15;54.72
49999;BME280;68071;45.062;7.356;2024-03-17T16:44:18;95398.72;;;16.12;59.47
49999;BME280;68071;45.062;7.356;2024-03-17T16:47:50;95396.47;;;15.73;60.04
49999;BME280;68071;45.062;7.356;2024-03-17T16:51:02;95400.00;;;15.24;66.02
49999;BME280;68071;45.062;7.356;2024-03-17T16:54:54;95381.09;;;14.79;67.26
49999;BME280;68071;45.062;7.356;2024-03-17T17:02:02;95394.88;;;13.03;84.68
49999;BME280;68071;45.062;7.356;2024-03-17T17:05:43;95393.75;;;13.24;81.99
49999;BME280;68071;45.062;7.356;2024-03-17T17:09:05;95390.69;;;13.19;83.58
49999;BME280;68071;45.062;7.356;2024-03-17T17:12:27;95392.03;;;13.07;93.23